createdAt,value
2022-12-07T00:01:12.768Z,11.17
2022-12-07T00:06:06.775Z,10.17
2022-12-07T00:11:24.647Z,10.10
2022-12-07T00:16:19.665Z,9.93
2022-12-07T00:21:17.787Z,9.80
2022-12-07T00:26:22.313Z,9.37
2022-12-07T00:31:15.715Z,9.47
2022-12-07T00:36:10.368Z,10.87
2022-12-07T00:41:07.489Z,10.13
2022-12-07T00:45:59.510Z,10.20
2022-12-07T00:50:52.337Z,9.67
2022-12-07T00:55:44.864Z,9.97
2022-12-07T01:00:38.451Z,9.33
2022-12-07T01:05:30.457Z,10.00
2022-12-07T01:10:23.515Z,9.37
2022-12-07T01:15:15.631Z,10.83
2022-12-07T01:20:08.726Z,10.23
2022-12-07T01:25:00.695Z,10.63
2022-12-07T01:29:52.624Z,10.33
2022-12-07T01:34:44.794Z,10.47
2022-12-07T01:39:36.777Z,11.37
2022-12-07T01:44:34.127Z,10.50
2022-12-07T01:49:43.030Z,9.87
2022-12-07T01:54:36.124Z,10.43
2022-12-07T01:59:28.518Z,9.43
2022-12-07T02:04:22.239Z,10.30
2022-12-07T02:09:25.523Z,10.70
2022-12-07T02:14:17.616Z,10.30
2022-12-07T02:19:12.341Z,10.67
2022-12-07T02:24:25.883Z,9.33
2022-12-07T02:29:41.627Z,8.90
2022-12-07T02:34:57.608Z,9.03
2022-12-07T02:39:56.487Z,9.00
2022-12-07T02:44:49.430Z,8.60
2022-12-07T02:49:41.789Z,8.53
2022-12-07T02:54:33.839Z,8.70
2022-12-07T02:59:41.732Z,9.50
2022-12-07T03:04:56.096Z,9.53
2022-12-07T03:10:33.228Z,8.90
2022-12-07T03:15:51.148Z,10.70
2022-12-07T03:20:45.413Z,9.60
2022-12-07T03:25:43.497Z,9.07
2022-12-07T03:30:52.504Z,10.20
2022-12-07T03:35:54.962Z,9.80
2022-12-07T03:40:56.035Z,10.27
2022-12-07T03:46:06.446Z,10.60
2022-12-07T03:51:24.299Z,11.03
2022-12-07T03:56:16.728Z,10.80
2022-12-07T04:01:08.709Z,10.13
2022-12-07T04:06:01.060Z,10.40
2022-12-07T04:10:54.403Z,9.97
2022-12-07T04:15:46.454Z,11.13
2022-12-07T04:20:38.423Z,9.93
2022-12-07T04:25:30.407Z,11.40
2022-12-07T04:30:22.362Z,10.43
2022-12-07T04:35:14.367Z,10.53
2022-12-07T04:40:08.828Z,14.00
2022-12-07T04:45:00.829Z,11.90
2022-12-07T04:49:52.797Z,14.00
2022-12-07T04:54:44.751Z,16.53
2022-12-07T04:59:39.873Z,15.20
2022-12-07T05:04:35.887Z,17.43
2022-12-07T05:09:27.883Z,16.07
2022-12-07T05:14:21.438Z,14.90
2022-12-07T05:19:13.914Z,15.83
2022-12-07T05:24:06.975Z,14.43
2022-12-07T05:28:59.234Z,13.97
2022-12-07T05:33:51.357Z,14.00
2022-12-07T05:38:43.455Z,11.47
2022-12-07T05:43:35.448Z,10.00
2022-12-07T05:48:27.844Z,9.03
2022-12-07T05:53:23.177Z,7.93
2022-12-07T05:58:34.735Z,6.43
2022-12-07T06:03:26.840Z,7.60
2022-12-07T06:08:18.939Z,6.87
2022-12-07T06:13:10.890Z,7.10
2022-12-07T06:18:02.896Z,6.73
2022-12-07T06:22:54.933Z,6.53
2022-12-07T06:27:46.957Z,6.13
2022-12-07T06:32:38.959Z,5.63
2022-12-07T06:37:30.921Z,4.87
2022-12-07T06:42:23.141Z,4.50
2022-12-07T06:52:27.186Z,5.20
2022-12-07T06:57:19.359Z,4.97
2022-12-07T07:02:11.375Z,4.73
2022-12-07T07:07:03.307Z,5.37
2022-12-07T07:11:55.593Z,5.00
2022-12-07T07:16:47.711Z,5.40
2022-12-07T07:21:40.452Z,5.53
2022-12-07T07:26:33.059Z,5.40
2022-12-07T07:31:25.294Z,4.77
2022-12-07T07:36:17.269Z,5.10
2022-12-07T07:41:09.252Z,5.93
2022-12-07T07:46:01.351Z,5.83
2022-12-07T07:50:53.404Z,5.23
2022-12-07T07:55:53.512Z,5.40
2022-12-07T08:00:45.526Z,4.60
2022-12-07T08:05:38.717Z,5.70
2022-12-07T08:10:33.009Z,6.20
2022-12-07T08:15:26.188Z,5.63
2022-12-07T08:20:18.229Z,6.30
2022-12-07T08:25:10.172Z,6.67
2022-12-07T08:30:02.823Z,6.50
2022-12-07T08:34:55.071Z,6.87
2022-12-07T08:39:47.298Z,6.53
2022-12-07T08:44:39.259Z,7.40
2022-12-07T08:49:44.621Z,6.57
2022-12-07T08:54:39.351Z,6.77
2022-12-07T08:59:32.112Z,7.40
2022-12-07T09:04:24.104Z,6.07
2022-12-07T09:09:16.214Z,7.10
2022-12-07T09:14:08.534Z,6.67
2022-12-07T09:19:00.630Z,4.77
2022-12-07T09:23:52.568Z,5.30
2022-12-07T09:28:44.579Z,5.03
2022-12-07T09:33:37.025Z,5.00
2022-12-07T09:38:30.671Z,5.13
2022-12-07T09:43:27.119Z,5.10
2022-12-07T09:48:40.197Z,5.10
2022-12-07T09:53:37.190Z,4.53
2022-12-07T09:58:30.924Z,4.97
2022-12-07T10:03:23.069Z,3.93
2022-12-07T10:08:18.204Z,3.33
2022-12-07T10:13:12.496Z,4.00
2022-12-07T10:18:04.527Z,3.90
2022-12-07T10:23:03.297Z,4.20
2022-12-07T10:28:13.991Z,3.67
2022-12-07T10:33:29.413Z,3.47
2022-12-07T10:38:21.475Z,3.40
2022-12-07T10:43:13.462Z,4.13
2022-12-07T10:48:12.892Z,4.13
2022-12-07T10:53:22.999Z,4.70
2022-12-07T10:58:25.598Z,4.00
2022-12-07T11:03:39.086Z,4.10
2022-12-07T11:08:48.913Z,4.60
2022-12-07T11:13:48.921Z,5.20
2022-12-07T11:18:58.352Z,5.00
2022-12-07T11:24:06.537Z,4.63
2022-12-07T11:29:28.785Z,4.80
2022-12-07T11:34:29.646Z,5.10
2022-12-07T11:39:33.156Z,3.87
2022-12-07T11:44:43.759Z,2.87
2022-12-07T11:49:49.871Z,4.10
2022-12-07T11:54:44.719Z,5.03
2022-12-07T11:59:51.264Z,5.20
2022-12-07T12:05:22.655Z,6.97
2022-12-07T12:10:47.431Z,6.77
2022-12-07T12:16:11.533Z,7.13
2022-12-07T12:21:20.859Z,6.00
2022-12-07T12:26:23.357Z,6.43
2022-12-07T12:31:29.645Z,6.40
2022-12-07T12:36:25.076Z,9.43
2022-12-07T12:41:42.434Z,6.43
2022-12-07T12:46:34.836Z,6.50
2022-12-07T12:51:41.535Z,5.83
2022-12-07T12:56:40.510Z,3.60
2022-12-07T13:01:42.624Z,2.80
2022-12-07T13:06:39.146Z,1.80
2022-12-07T13:11:36.254Z,1.17
2022-12-07T13:16:39.458Z,1.17
2022-12-07T13:21:31.388Z,1.20
2022-12-07T13:26:37.784Z,1.60
2022-12-07T13:31:44.993Z,1.10
2022-12-07T13:36:40.902Z,1.37
2022-12-07T13:41:33.393Z,1.70
2022-12-07T13:46:33.512Z,1.80
2022-12-07T13:51:27.674Z,3.20
2022-12-07T13:56:23.112Z,2.70
2022-12-07T14:01:15.749Z,3.23
2022-12-07T14:06:21.806Z,3.33
2022-12-07T14:11:22.838Z,4.20
2022-12-07T14:16:28.670Z,4.87
2022-12-07T14:21:27.261Z,6.20
2022-12-07T14:26:22.370Z,7.00
2022-12-07T14:31:24.872Z,5.63
2022-12-07T14:36:21.679Z,17.33
2022-12-07T14:41:43.880Z,9.30
2022-12-07T14:46:35.886Z,7.83
2022-12-07T14:56:39.980Z,12.07
2022-12-07T15:01:32.044Z,12.17
2022-12-07T15:06:23.984Z,9.07
2022-12-07T15:11:17.593Z,6.33
2022-12-07T15:16:13.637Z,7.00
2022-12-07T15:21:05.767Z,9.10
2022-12-07T15:25:57.831Z,8.17
2022-12-07T15:30:49.771Z,7.20
2022-12-07T15:35:46.439Z,6.77
2022-12-07T15:40:38.496Z,5.83
2022-12-07T15:45:30.635Z,10.20
2022-12-07T15:50:23.368Z,5.10
2022-12-07T15:55:15.390Z,10.43
2022-12-07T16:00:11.143Z,9.50
2022-12-07T16:05:03.626Z,8.70
2022-12-07T16:09:57.055Z,8.97
2022-12-07T16:14:50.253Z,8.30
2022-12-07T16:19:42.326Z,7.73
2022-12-07T16:24:34.422Z,9.43
2022-12-07T16:29:27.074Z,15.93
2022-12-07T16:34:19.806Z,13.47
2022-12-07T16:39:11.957Z,13.43
2022-12-07T16:44:06.545Z,10.07
2022-12-07T16:48:58.546Z,9.87
2022-12-07T16:53:53.900Z,6.77
2022-12-07T16:58:47.497Z,4.87
2022-12-07T17:03:39.621Z,2.80
2022-12-07T17:08:31.691Z,4.80
2022-12-07T17:13:42.413Z,3.00
2022-12-07T17:18:37.188Z,2.53
2022-12-07T17:23:29.315Z,4.40
2022-12-07T17:28:21.472Z,6.77
2022-12-07T17:33:13.845Z,2.97
2022-12-07T17:38:05.870Z,3.10
2022-12-07T17:42:57.900Z,2.73
2022-12-07T17:47:49.850Z,2.57
2022-12-07T17:53:00.076Z,1.90
2022-12-07T17:57:52.144Z,2.27
2022-12-07T18:02:44.265Z,2.50
2022-12-07T18:07:36.268Z,2.97
2022-12-07T18:12:28.569Z,2.67
2022-12-07T18:17:20.558Z,2.20
2022-12-07T18:22:12.503Z,1.83
2022-12-07T18:27:06.310Z,1.97
2022-12-07T18:31:59.756Z,2.23
2022-12-07T18:36:51.822Z,2.90
2022-12-07T18:41:44.088Z,2.80
2022-12-07T18:46:36.415Z,2.73
2022-12-07T18:51:32.362Z,2.57
2022-12-07T18:56:26.219Z,2.30
2022-12-07T19:01:18.240Z,2.53
2022-12-07T19:06:10.380Z,2.60
2022-12-07T19:11:24.179Z,2.10
2022-12-07T19:16:16.445Z,2.20
2022-12-07T19:21:08.844Z,2.30
2022-12-07T19:26:00.884Z,2.00
2022-12-07T19:30:52.860Z,2.00
2022-12-07T19:35:46.018Z,2.40
2022-12-07T19:40:38.018Z,3.53
2022-12-07T19:45:32.793Z,3.13
2022-12-07T19:50:25.030Z,3.80
2022-12-07T19:55:17.143Z,3.87
2022-12-07T20:00:10.321Z,5.93
2022-12-07T20:05:06.197Z,5.50
2022-12-07T20:09:59.879Z,6.07
2022-12-07T20:14:52.017Z,6.00
2022-12-07T20:19:44.105Z,5.07
2022-12-07T20:24:36.489Z,5.73
2022-12-07T20:29:28.768Z,4.70
2022-12-07T20:34:20.944Z,3.63
2022-12-07T20:39:13.342Z,3.30
2022-12-07T20:44:05.705Z,4.60
2022-12-07T20:49:01.669Z,3.77
2022-12-07T20:53:53.750Z,4.10
2022-12-07T20:58:47.048Z,3.50
2022-12-07T21:03:39.064Z,4.30
2022-12-07T21:08:31.136Z,4.33
2022-12-07T21:13:23.243Z,4.77
2022-12-07T21:18:15.182Z,5.17
2022-12-07T21:23:07.287Z,4.63
2022-12-07T21:27:59.594Z,4.67
2022-12-07T21:32:51.562Z,4.50
2022-12-07T21:37:43.564Z,5.20
2022-12-07T21:42:35.573Z,4.10
2022-12-07T21:47:27.518Z,5.23
2022-12-07T21:52:19.529Z,5.40
2022-12-07T21:57:11.491Z,6.47
2022-12-07T22:02:03.555Z,6.33
2022-12-07T22:06:57.407Z,6.60
2022-12-07T22:11:49.704Z,8.50
2022-12-07T22:16:41.796Z,5.40
2022-12-07T22:21:34.560Z,5.83
2022-12-07T22:26:27.400Z,6.07
2022-12-07T22:31:20.729Z,6.17
2022-12-07T22:36:13.661Z,7.27
2022-12-07T22:41:12.972Z,6.00
2022-12-07T22:46:05.714Z,6.27
2022-12-07T22:50:57.760Z,5.13
2022-12-07T22:55:50.661Z,5.27
2022-12-07T23:00:44.018Z,4.90
2022-12-07T23:05:42.865Z,4.23
2022-12-07T23:10:35.088Z,4.40
2022-12-07T23:15:27.056Z,4.33
2022-12-07T23:20:20.320Z,3.73
2022-12-07T23:25:12.283Z,4.20
2022-12-07T23:30:07.418Z,3.53
2022-12-07T23:34:59.350Z,3.70
2022-12-07T23:39:51.364Z,3.67
2022-12-07T23:44:43.356Z,3.40
2022-12-07T23:49:35.337Z,3.57
2022-12-07T23:54:27.325Z,3.33
2022-12-07T23:59:19.355Z,3.10
